sensor_id;sensor_type;location;lat;lon;timestamp;temperature;humidity
8882;DHT22;4477;48.736;9.176;2024-02-15T00:02:08;9.20;99.90
8882;DHT22;4477;48.736;9.176;2024-02-15T00:04:36;9.20;99.90
8882;DHT22;4477;48.736;9.176;2024-02-15T00:07:04;9.10;99.90
8882;DHT22;4477;48.736;9.176;2024-02-15T00:09:31;9.20;99.90
8882;DHT22;4477;48.736;9.176;2024-02-15T00:11:58;9.20;99.90
8882;DHT22;4477;48.736;9.176;2024-02-15T00:14:26;9.30;99.90
8882;DHT22;4477;48.736;9.176;2024-02-15T00:16:53;9.40;99.90
8882;DHT22;4477;48.736;9.176;2024-02-15T00:19:20;9.40;99.90
8882;DHT22;4477;48.736;9.176;2024-02-15T00:21:47;9.40;99.90
8882;DHT22;4477;48.736;9.176;2024-02-15T00:24:15;9.40;99.90
8882;DHT22;4477;48.736;9.176;2024-02-15T00:26:42;9.50;99.90
8882;DHT22;4477;48.736;9.176;2024-02-15T00:29:10;9.50;99.90
8882;DHT22;4477;48.736;9.176;2024-02-15T00:31:37;9.50;99.90
8882;DHT22;4477;48.736;9.176;2024-02-15T00:34:04;9.60;99.90
8882;DHT22;4477;48.736;9.176;2024-02-15T00:36:31;9.50;99.90
8882;DHT22;4477;48.736;9.176;2024-02-15T00:38:59;9.40;99.90
8882;DHT22;4477;48.736;9.176;2024-02-15T00:41:27;9.50;99.90
8882;DHT22;4477;48.736;9.176;2024-02-15T00:43:54;9.40;99.90
8882;DHT22;4477;48.736;9.176;2024-02-15T00:46:21;9.40;99.90
8882;DHT22;4477;48.736;9.176;2024-02-15T00:48:48;9.50;99.90
8882;DHT22;4477;48.736;9.176;2024-02-15T00:51:15;9.40;99.90
8882;DHT22;4477;48.736;9.176;2024-02-15T00:53:42;9.40;99.90
8882;DHT22;4477;48.736;9.176;2024-02-15T00:56:09;9.40;99.90
8882;DHT22;4477;48.736;9.176;2024-02-15T00:58:37;9.40;99.90
8882;DHT22;4477;48.736;9.176;2024-02-15T01:01:04;9.40;99.90
8882;DHT22;4477;48.736;9.176;2024-02-15T01:03:31;9.20;99.90
8882;DHT22;4477;48.736;9.176;2024-02-15T01:05:58;9.40;99.90
8882;DHT22;4477;48.736;9.176;2024-02-15T01:08:25;9.30;99.90
8882;DHT22;4477;48.736;9.176;2024-02-15T01:10:52;9.30;99.90
8882;DHT22;4477;48.736;9.176;2024-02-15T01:13:20;9.20;99.90
8882;DHT22;4477;48.736;9.176;2024-02-15T01:15:48;9.10;99.90
8882;DHT22;4477;48.736;9.176;2024-02-15T01:18:15;9.20;99.90
8882;DHT22;4477;48.736;9.176;2024-02-15T01:20:42;9.30;99.90
8882;DHT22;4477;48.736;9.176;2024-02-15T01:23:10;9.30;99.90
8882;DHT22;4477;48.736;9.176;2024-02-15T01:25:37;9.20;99.90
8882;DHT22;4477;48.736;9.176;2024-02-15T01:28:05;9.20;99.90
8882;DHT22;4477;48.736;9.176;2024-02-15T01:30:32;9.20;99.90
8882;DHT22;4477;48.736;9.176;2024-02-15T01:33:00;9.10;99.90
8882;DHT22;4477;48.736;9.176;2024-02-15T01:35:27;9.20;99.90
8882;DHT22;4477;48.736;9.176;2024-02-15T01:37:54;9.10;99.90
8882;DHT22;4477;48.736;9.176;2024-02-15T01:40:21;9.00;99.90
8882;DHT22;4477;48.736;9.176;2024-02-15T01:42:48;8.90;99.90
8882;DHT22;4477;48.736;9.176;2024-02-15T01:45:16;8.80;99.90
8882;DHT22;4477;48.736;9.176;2024-02-15T01:47:43;8.80;99.90
8882;DHT22;4477;48.736;9.176;2024-02-15T01:50:13;8.60;99.90
8882;DHT22;4477;48.736;9.176;2024-02-15T01:52:41;8.40;99.90
8882;DHT22;4477;48.736;9.176;2024-02-15T01:55:13;8.20;99.90
8882;DHT22;4477;48.736;9.176;2024-02-15T01:57:44;8.10;99.90
8882;DHT22;4477;48.736;9.176;2024-02-15T02:00:12;7.80;99.90
8882;DHT22;4477;48.736;9.176;2024-02-15T02:02:40;7.50;99.90
8882;DHT22;4477;48.736;9.176;2024-02-15T02:05:08;7.60;99.90
8882;DHT22;4477;48.736;9.176;2024-02-15T02:07:37;7.30;99.90
8882;DHT22;4477;48.736;9.176;2024-02-15T02:10:06;7.00;99.90
8882;DHT22;4477;48.736;9.176;2024-02-15T02:12:34;6.70;99.90
8882;DHT22;4477;48.736;9.176;2024-02-15T02:15:01;6.50;99.90
8882;DHT22;4477;48.736;9.176;2024-02-15T02:19:55;6.20;99.90
8882;DHT22;4477;48.736;9.176;2024-02-15T02:22:23;6.00;99.90
8882;DHT22;4477;48.736;9.176;2024-02-15T02:25:05;6.00;99.90
8882;DHT22;4477;48.736;9.176;2024-02-15T02:27:34;5.90;99.90
8882;DHT22;4477;48.736;9.176;2024-02-15T02:30:03;6.00;99.90
8882;DHT22;4477;48.736;9.176;2024-02-15T02:32:32;5.80;99.90
8882;DHT22;4477;48.736;9.176;2024-02-15T02:35:00;5.80;99.90
8882;DHT22;4477;48.736;9.176;2024-02-15T02:37:27;5.80;99.90
8882;DHT22;4477;48.736;9.176;2024-02-15T02:39:54;5.80;99.90
8882;DHT22;4477;48.736;9.176;2024-02-15T02:42:23;5.80;99.90
8882;DHT22;4477;48.736;9.176;2024-02-15T02:44:50;6.10;99.90
8882;DHT22;4477;48.736;9.176;2024-02-15T02:47:17;6.10;99.90
8882;DHT22;4477;48.736;9.176;2024-02-15T02:49:44;6.00;99.90
8882;DHT22;4477;48.736;9.176;2024-02-15T02:52:11;5.80;99.90
8882;DHT22;4477;48.736;9.176;2024-02-15T02:54:38;5.90;99.90
8882;DHT22;4477;48.736;9.176;2024-02-15T02:57:05;5.80;99.90
8882;DHT22;4477;48.736;9.176;2024-02-15T02:59:34;5.90;99.90
8882;DHT22;4477;48.736;9.176;2024-02-15T03:02:04;5.90;99.90
8882;DHT22;4477;48.736;9.176;2024-02-15T03:04:32;5.90;99.90
8882;DHT22;4477;48.736;9.176;2024-02-15T03:06:59;6.20;99.90
8882;DHT22;4477;48.736;9.176;2024-02-15T03:09:26;6.40;99.90
8882;DHT22;4477;48.736;9.176;2024-02-15T03:11:55;6.70;99.90
8882;DHT22;4477;48.736;9.176;2024-02-15T03:14:22;6.70;99.90
8882;DHT22;4477;48.736;9.176;2024-02-15T03:16:52;6.80;99.90
8882;DHT22;4477;48.736;9.176;2024-02-15T03:19:21;7.00;99.90
8882;DHT22;4477;48.736;9.176;2024-02-15T03:21:48;6.90;99.90
8882;DHT22;4477;48.736;9.176;2024-02-15T03:24:15;7.00;99.90
8882;DHT22;4477;48.736;9.176;2024-02-15T03:26:42;7.00;99.90
8882;DHT22;4477;48.736;9.176;2024-02-15T03:29:09;6.90;99.90
8882;DHT22;4477;48.736;9.176;2024-02-15T03:31:37;6.90;99.90
8882;DHT22;4477;48.736;9.176;2024-02-15T03:34:05;6.80;99.90
8882;DHT22;4477;48.736;9.176;2024-02-15T03:36:32;6.80;99.90
8882;DHT22;4477;48.736;9.176;2024-02-15T03:38:59;6.70;99.90
8882;DHT22;4477;48.736;9.176;2024-02-15T03:41:27;6.50;99.90
8882;DHT22;4477;48.736;9.176;2024-02-15T03:43:58;6.40;99.90
8882;DHT22;4477;48.736;9.176;2024-02-15T03:46:25;6.30;99.90
8882;DHT22;4477;48.736;9.176;2024-02-15T03:48:53;6.40;99.90
8882;DHT22;4477;48.736;9.176;2024-02-15T03:51:22;6.40;99.90
8882;DHT22;4477;48.736;9.176;2024-02-15T03:53:50;6.40;99.90
8882;DHT22;4477;48.736;9.176;2024-02-15T03:56:17;6.40;99.90
8882;DHT22;4477;48.736;9.176;2024-02-15T03:58:44;6.30;99.90
8882;DHT22;4477;48.736;9.176;2024-02-15T04:01:11;6.30;99.90
8882;DHT22;4477;48.736;9.176;2024-02-15T04:03:40;6.20;99.90
8882;DHT22;4477;48.736;9.176;2024-02-15T04:06:07;6.30;99.90
8882;DHT22;4477;48.736;9.176;2024-02-15T04:08:36;6.50;99.90
8882;DHT22;4477;48.736;9.176;2024-02-15T04:11:04;6.50;99.90
8882;DHT22;4477;48.736;9.176;2024-02-15T04:13:33;6.60;99.90
8882;DHT22;4477;48.736;9.176;2024-02-15T04:16:00;6.60;99.90
8882;DHT22;4477;48.736;9.176;2024-02-15T04:18:27;6.70;99.90
8882;DHT22;4477;48.736;9.176;2024-02-15T04:20:58;6.70;99.90
8882;DHT22;4477;48.736;9.176;2024-02-15T04:23:25;6.80;99.90
8882;DHT22;4477;48.736;9.176;2024-02-15T04:25:53;6.80;99.90
8882;DHT22;4477;48.736;9.176;2024-02-15T04:28:20;6.90;99.90
8882;DHT22;4477;48.736;9.176;2024-02-15T04:30:47;7.00;99.90
8882;DHT22;4477;48.736;9.176;2024-02-15T04:33:14;7.10;99.90
8882;DHT22;4477;48.736;9.176;2024-02-15T04:35:42;7.10;99.90
8882;DHT22;4477;48.736;9.176;2024-02-15T04:38:09;7.10;99.90
8882;DHT22;4477;48.736;9.176;2024-02-15T04:40:36;7.20;99.90
8882;DHT22;4477;48.736;9.176;2024-02-15T04:43:05;7.40;99.90
8882;DHT22;4477;48.736;9.176;2024-02-15T04:45:32;7.40;99.90
8882;DHT22;4477;48.736;9.176;2024-02-15T04:47:59;7.40;99.90
8882;DHT22;4477;48.736;9.176;2024-02-15T04:50:27;7.40;99.90
8882;DHT22;4477;48.736;9.176;2024-02-15T04:52:55;7.40;99.90
8882;DHT22;4477;48.736;9.176;2024-02-15T04:55:22;7.40;99.90
8882;DHT22;4477;48.736;9.176;2024-02-15T04:57:49;7.40;99.90
8882;DHT22;4477;48.736;9.176;2024-02-15T05:00:22;7.50;99.90
8882;DHT22;4477;48.736;9.176;2024-02-15T05:02:51;7.60;99.90
8882;DHT22;4477;48.736;9.176;2024-02-15T05:05:18;7.60;99.90
8882;DHT22;4477;48.736;9.176;2024-02-15T05:07:45;7.60;99.90
8882;DHT22;4477;48.736;9.176;2024-02-15T05:10:14;7.60;99.90
8882;DHT22;4477;48.736;9.176;2024-02-15T05:12:41;7.60;99.90
8882;DHT22;4477;48.736;9.176;2024-02-15T05:15:09;7.60;99.90
8882;DHT22;4477;48.736;9.176;2024-02-15T05:17:38;7.60;99.90
8882;DHT22;4477;48.736;9.176;2024-02-15T05:20:08;7.70;99.90
8882;DHT22;4477;48.736;9.176;2024-02-15T05:22:37;7.70;99.90
8882;DHT22;4477;48.736;9.176;2024-02-15T05:25:06;7.70;99.90
8882;DHT22;4477;48.736;9.176;2024-02-15T05:27:34;7.80;99.90
8882;DHT22;4477;48.736;9.176;2024-02-15T05:30:02;7.80;99.90
8882;DHT22;4477;48.736;9.176;2024-02-15T05:32:33;7.90;99.90
8882;DHT22;4477;48.736;9.176;2024-02-15T05:35:04;7.90;99.90
8882;DHT22;4477;48.736;9.176;2024-02-15T05:37:31;7.80;99.90
8882;DHT22;4477;48.736;9.176;2024-02-15T05:40:00;7.80;99.90
8882;DHT22;4477;48.736;9.176;2024-02-15T05:42:27;7.80;99.90
8882;DHT22;4477;48.736;9.176;2024-02-15T05:44:54;7.70;99.90
8882;DHT22;4477;48.736;9.176;2024-02-15T05:47:21;7.60;99.90
8882;DHT22;4477;48.736;9.176;2024-02-15T05:49:48;7.50;99.90
8882;DHT22;4477;48.736;9.176;2024-02-15T05:52:16;7.30;99.90
8882;DHT22;4477;48.736;9.176;2024-02-15T05:54:44;7.30;99.90
8882;DHT22;4477;48.736;9.176;2024-02-15T05:57:11;7.30;99.90
8882;DHT22;4477;48.736;9.176;2024-02-15T05:59:38;7.40;99.90
8882;DHT22;4477;48.736;9.176;2024-02-15T06:02:06;7.40;99.90
8882;DHT22;4477;48.736;9.176;2024-02-15T06:04:35;7.50;99.90
8882;DHT22;4477;48.736;9.176;2024-02-15T06:07:04;7.50;99.90
8882;DHT22;4477;48.736;9.176;2024-02-15T06:09:32;7.40;99.90
8882;DHT22;4477;48.736;9.176;2024-02-15T06:12:00;7.50;99.90
8882;DHT22;4477;48.736;9.176;2024-02-15T06:14:27;7.50;99.90
8882;DHT22;4477;48.736;9.176;2024-02-15T06:16:55;7.60;99.90
8882;DHT22;4477;48.736;9.176;2024-02-15T06:19:23;7.60;99.90
8882;DHT22;4477;48.736;9.176;2024-02-15T06:21:50;7.60;99.90
8882;DHT22;4477;48.736;9.176;2024-02-15T06:24:17;7.60;99.90
8882;DHT22;4477;48.736;9.176;2024-02-15T06:26:46;7.50;99.90
8882;DHT22;4477;48.736;9.176;2024-02-15T06:29:14;7.40;99.90
8882;DHT22;4477;48.736;9.176;2024-02-15T06:32:13;7.30;99.90
8882;DHT22;4477;48.736;9.176;2024-02-15T06:34:58;7.30;99.90
8882;DHT22;4477;48.736;9.176;2024-02-15T06:37:53;7.30;99.90
8882;DHT22;4477;48.736;9.176;2024-02-15T06:40:38;7.30;99.90
8882;DHT22;4477;48.736;9.176;2024-02-15T06:43:06;7.30;99.90
8882;DHT22;4477;48.736;9.176;2024-02-15T06:45:33;7.30;99.90
8882;DHT22;4477;48.736;9.176;2024-02-15T06:48:03;7.20;99.90
8882;DHT22;4477;48.736;9.176;2024-02-15T06:50:30;7.20;99.90
8882;DHT22;4477;48.736;9.176;2024-02-15T06:52:57;7.20;99.90
8882;DHT22;4477;48.736;9.176;2024-02-15T06:55:23;7.20;99.90
8882;DHT22;4477;48.736;9.176;2024-02-15T06:57:50;7.10;99.90
8882;DHT22;4477;48.736;9.176;2024-02-15T07:00:19;7.10;99.90
8882;DHT22;4477;48.736;9.176;2024-02-15T07:02:46;7.10;99.90
8882;DHT22;4477;48.736;9.176;2024-02-15T07:05:14;7.10;99.90
8882;DHT22;4477;48.736;9.176;2024-02-15T07:07:42;7.10;99.90
8882;DHT22;4477;48.736;9.176;2024-02-15T07:10:09;7.00;99.90
8882;DHT22;4477;48.736;9.176;2024-02-15T07:12:37;7.00;99.90
8882;DHT22;4477;48.736;9.176;2024-02-15T07:15:05;7.00;99.90
8882;DHT22;4477;48.736;9.176;2024-02-15T07:17:36;7.00;99.90
8882;DHT22;4477;48.736;9.176;2024-02-15T07:20:04;7.00;99.90
8882;DHT22;4477;48.736;9.176;2024-02-15T07:22:32;7.10;99.90
8882;DHT22;4477;48.736;9.176;2024-02-15T07:24:59;7.30;99.90
8882;DHT22;4477;48.736;9.176;2024-02-15T07:27:26;7.30;99.90
8882;DHT22;4477;48.736;9.176;2024-02-15T07:29:52;7.50;99.90
8882;DHT22;4477;48.736;9.176;2024-02-15T07:32:19;7.70;99.90
8882;DHT22;4477;48.736;9.176;2024-02-15T07:34:48;8.00;99.90
8882;DHT22;4477;48.736;9.176;2024-02-15T07:37:15;8.20;99.90
8882;DHT22;4477;48.736;9.176;2024-02-15T07:39:42;8.30;99.90
8882;DHT22;4477;48.736;9.176;2024-02-15T07:42:09;8.50;99.90
8882;DHT22;4477;48.736;9.176;2024-02-15T07:44:38;8.70;99.90
8882;DHT22;4477;48.736;9.176;2024-02-15T07:47:05;8.80;99.90
8882;DHT22;4477;48.736;9.176;2024-02-15T07:49:32;9.10;99.90
8882;DHT22;4477;48.736;9.176;2024-02-15T07:52:01;9.20;99.90
8882;DHT22;4477;48.736;9.176;2024-02-15T07:54:30;9.30;99.90
8882;DHT22;4477;48.736;9.176;2024-02-15T07:56:59;9.40;99.90
8882;DHT22;4477;48.736;9.176;2024-02-15T07:59:25;9.70;99.90
8882;DHT22;4477;48.736;9.176;2024-02-15T08:01:54;10.00;99.90
8882;DHT22;4477;48.736;9.176;2024-02-15T08:04:21;10.30;99.90
8882;DHT22;4477;48.736;9.176;2024-02-15T08:06:48;10.30;99.90
8882;DHT22;4477;48.736;9.176;2024-02-15T08:09:19;10.40;99.90
8882;DHT22;4477;48.736;9.176;2024-02-15T08:11:49;10.60;99.90
8882;DHT22;4477;48.736;9.176;2024-02-15T08:14:16;11.40;99.90
8882;DHT22;4477;48.736;9.176;2024-02-15T08:16:43;12.50;99.90
8882;DHT22;4477;48.736;9.176;2024-02-15T08:19:10;13.20;95.50
8882;DHT22;4477;48.736;9.176;2024-02-15T08:21:37;12.80;94.20
8882;DHT22;4477;48.736;9.176;2024-02-15T08:24:07;13.00;93.80
8882;DHT22;4477;48.736;9.176;2024-02-15T08:26:38;12.40;94.10
8882;DHT22;4477;48.736;9.176;2024-02-15T08:29:05;12.40;93.00
8882;DHT22;4477;48.736;9.176;2024-02-15T08:31:33;12.70;93.00
8882;DHT22;4477;48.736;9.176;2024-02-15T08:34:01;12.80;91.50
8882;DHT22;4477;48.736;9.176;2024-02-15T08:36:29;13.50;92.10
8882;DHT22;4477;48.736;9.176;2024-02-15T08:38:57;12.80;92.50
8882;DHT22;4477;48.736;9.176;2024-02-15T08:41:25;12.80;91.40
8882;DHT22;4477;48.736;9.176;2024-02-15T08:43:54;12.40;91.80
8882;DHT22;4477;48.736;9.176;2024-02-15T08:46:22;12.80;92.80
8882;DHT22;4477;48.736;9.176;2024-02-15T08:48:50;12.90;91.00
8882;DHT22;4477;48.736;9.176;2024-02-15T08:51:17;12.30;91.30
8882;DHT22;4477;48.736;9.176;2024-02-15T08:53:46;11.60;92.40
8882;DHT22;4477;48.736;9.176;2024-02-15T08:56:13;11.30;93.50
8882;DHT22;4477;48.736;9.176;2024-02-15T08:58:40;11.60;94.00
8882;DHT22;4477;48.736;9.176;2024-02-15T09:01:09;11.40;93.50
8882;DHT22;4477;48.736;9.176;2024-02-15T09:03:38;11.60;95.00
8882;DHT22;4477;48.736;9.176;2024-02-15T09:06:05;12.00;94.60
8882;DHT22;4477;48.736;9.176;2024-02-15T09:08:33;12.90;93.10
8882;DHT22;4477;48.736;9.176;2024-02-15T09:11:00;13.60;90.80
8882;DHT22;4477;48.736;9.176;2024-02-15T09:13:27;14.40;88.60
8882;DHT22;4477;48.736;9.176;2024-02-15T09:15:54;14.80;85.40
8882;DHT22;4477;48.736;9.176;2024-02-15T09:18:22;15.30;82.10
8882;DHT22;4477;48.736;9.176;2024-02-15T09:20:49;15.30;83.50
8882;DHT22;4477;48.736;9.176;2024-02-15T09:23:21;15.60;81.00
8882;DHT22;4477;48.736;9.176;2024-02-15T09:25:49;16.00;80.70
8882;DHT22;4477;48.736;9.176;2024-02-15T09:28:17;16.30;76.90
8882;DHT22;4477;48.736;9.176;2024-02-15T09:30:48;17.00;74.10
8882;DHT22;4477;48.736;9.176;2024-02-15T09:33:17;16.20;74.20
8882;DHT22;4477;48.736;9.176;2024-02-15T09:35:46;16.40;76.70
8882;DHT22;4477;48.736;9.176;2024-02-15T09:38:13;16.60;74.10
8882;DHT22;4477;48.736;9.176;2024-02-15T09:40:42;16.00;74.30
8882;DHT22;4477;48.736;9.176;2024-02-15T09:43:10;16.40;75.60
8882;DHT22;4477;48.736;9.176;2024-02-15T09:45:39;17.10;72.30
8882;DHT22;4477;48.736;9.176;2024-02-15T09:48:06;17.10;69.10
8882;DHT22;4477;48.736;9.176;2024-02-15T09:50:39;17.30;73.80
8882;DHT22;4477;48.736;9.176;2024-02-15T09:53:09;17.90;70.30
8882;DHT22;4477;48.736;9.176;2024-02-15T09:55:36;17.40;69.60
8882;DHT22;4477;48.736;9.176;2024-02-15T09:58:07;18.10;63.50
8882;DHT22;4477;48.736;9.176;2024-02-15T10:00:35;17.50;66.80
8882;DHT22;4477;48.736;9.176;2024-02-15T10:03:03;17.10;68.20
8882;DHT22;4477;48.736;9.176;2024-02-15T10:05:32;17.70;68.30
8882;DHT22;4477;48.736;9.176;2024-02-15T10:07:59;18.80;63.40
8882;DHT22;4477;48.736;9.176;2024-02-15T10:10:27;19.20;64.60
8882;DHT22;4477;48.736;9.176;2024-02-15T10:12:55;19.40;62.00
8882;DHT22;4477;48.736;9.176;2024-02-15T10:15:32;19.60;63.60
8882;DHT22;4477;48.736;9.176;2024-02-15T10:18:01;19.50;59.00
8882;DHT22;4477;48.736;9.176;2024-02-15T10:20:29;19.20;62.70
8882;DHT22;4477;48.736;9.176;2024-02-15T10:25:39;19.70;61.10
8882;DHT22;4477;48.736;9.176;2024-02-15T10:28:07;20.80;58.30
8882;DHT22;4477;48.736;9.176;2024-02-15T10:38:05;20.80;58.50
8882;DHT22;4477;48.736;9.176;2024-02-15T10:55:33;20.90;54.30
8882;DHT22;4477;48.736;9.176;2024-02-15T10:58:06;20.60;53.60
8882;DHT22;4477;48.736;9.176;2024-02-15T11:03:07;21.10;54.30
8882;DHT22;4477;48.736;9.176;2024-02-15T11:05:35;21.60;51.70
8882;DHT22;4477;48.736;9.176;2024-02-15T11:08:05;18.00;57.00
8882;DHT22;4477;48.736;9.176;2024-02-15T11:10:33;17.60;60.30
8882;DHT22;4477;48.736;9.176;2024-02-15T11:13:00;19.50;56.80
8882;DHT22;4477;48.736;9.176;2024-02-15T11:15:45;20.40;54.80
8882;DHT22;4477;48.736;9.176;2024-02-15T11:18:42;22.10;51.40
8882;DHT22;4477;48.736;9.176;2024-02-15T11:21:11;20.40;53.10
8882;DHT22;4477;48.736;9.176;2024-02-15T11:26:09;21.00;52.80
8882;DHT22;4477;48.736;9.176;2024-02-15T11:28:40;20.50;54.20
8882;DHT22;4477;48.736;9.176;2024-02-15T11:34:44;22.00;51.10
8882;DHT22;4477;48.736;9.176;2024-02-15T11:47:37;22.80;51.50
8882;DHT22;4477;48.736;9.176;2024-02-15T12:36:51;23.30;48.10
8882;DHT22;4477;48.736;9.176;2024-02-15T12:39:32;19.30;53.40
8882;DHT22;4477;48.736;9.176;2024-02-15T12:42:00;19.40;54.00
8882;DHT22;4477;48.736;9.176;2024-02-15T13:09:32;20.10;53.90
8882;DHT22;4477;48.736;9.176;2024-02-15T13:12:01;19.50;55.40
8882;DHT22;4477;48.736;9.176;2024-02-15T13:14:29;19.10;56.70
8882;DHT22;4477;48.736;9.176;2024-02-15T13:16:56;18.50;56.20
8882;DHT22;4477;48.736;9.176;2024-02-15T13:19:23;18.20;57.30
8882;DHT22;4477;48.736;9.176;2024-02-15T13:21:50;17.30;59.70
8882;DHT22;4477;48.736;9.176;2024-02-15T13:24:18;17.40;59.70
8882;DHT22;4477;48.736;9.176;2024-02-15T13:26:46;17.40;60.30
8882;DHT22;4477;48.736;9.176;2024-02-15T13:29:15;17.60;59.90
8882;DHT22;4477;48.736;9.176;2024-02-15T13:31:42;17.40;60.30
8882;DHT22;4477;48.736;9.176;2024-02-15T13:34:09;17.10;60.60
8882;DHT22;4477;48.736;9.176;2024-02-15T13:36:37;17.20;61.10
8882;DHT22;4477;48.736;9.176;2024-02-15T13:39:04;17.40;59.70
8882;DHT22;4477;48.736;9.176;2024-02-15T13:41:35;17.00;61.10
8882;DHT22;4477;48.736;9.176;2024-02-15T13:44:01;16.90;61.20
8882;DHT22;4477;48.736;9.176;2024-02-15T13:46:30;17.30;59.30
8882;DHT22;4477;48.736;9.176;2024-02-15T13:48:56;17.50;59.40
8882;DHT22;4477;48.736;9.176;2024-02-15T13:51:23;17.70;59.10
8882;DHT22;4477;48.736;9.176;2024-02-15T13:53:51;18.10;59.50
8882;DHT22;4477;48.736;9.176;2024-02-15T13:56:18;18.60;57.40
8882;DHT22;4477;48.736;9.176;2024-02-15T13:58:45;19.00;56.50
8882;DHT22;4477;48.736;9.176;2024-02-15T14:01:12;18.80;56.00
8882;DHT22;4477;48.736;9.176;2024-02-15T14:03:41;19.20;55.80
8882;DHT22;4477;48.736;9.176;2024-02-15T14:06:08;18.80;56.70
8882;DHT22;4477;48.736;9.176;2024-02-15T14:08:35;18.40;57.20
8882;DHT22;4477;48.736;9.176;2024-02-15T14:11:02;18.50;56.80
8882;DHT22;4477;48.736;9.176;2024-02-15T14:13:31;18.40;56.80
8882;DHT22;4477;48.736;9.176;2024-02-15T14:15:58;18.10;57.90
8882;DHT22;4477;48.736;9.176;2024-02-15T14:18:25;17.60;58.90
8882;DHT22;4477;48.736;9.176;2024-02-15T14:20:55;17.40;60.00
8882;DHT22;4477;48.736;9.176;2024-02-15T14:23:21;17.60;60.60
8882;DHT22;4477;48.736;9.176;2024-02-15T14:25:51;17.30;61.30
8882;DHT22;4477;48.736;9.176;2024-02-15T14:28:18;17.60;59.80
8882;DHT22;4477;48.736;9.176;2024-02-15T14:30:45;17.50;60.60
8882;DHT22;4477;48.736;9.176;2024-02-15T14:33:29;17.40;61.10
8882;DHT22;4477;48.736;9.176;2024-02-15T14:35:59;17.60;61.10
8882;DHT22;4477;48.736;9.176;2024-02-15T14:38:26;17.80;60.40
8882;DHT22;4477;48.736;9.176;2024-02-15T14:40:53;17.50;60.30
8882;DHT22;4477;48.736;9.176;2024-02-15T14:43:21;17.50;60.00
8882;DHT22;4477;48.736;9.176;2024-02-15T14:45:49;17.60;61.30
8882;DHT22;4477;48.736;9.176;2024-02-15T14:48:17;18.30;60.00
8882;DHT22;4477;48.736;9.176;2024-02-15T14:50:46;18.70;59.20
8882;DHT22;4477;48.736;9.176;2024-02-15T14:53:17;19.10;58.60
8882;DHT22;4477;48.736;9.176;2024-02-15T14:55:44;19.10;57.30
8882;DHT22;4477;48.736;9.176;2024-02-15T15:16:02;19.70;59.40
8882;DHT22;4477;48.736;9.176;2024-02-15T15:18:38;18.40;58.90
8882;DHT22;4477;48.736;9.176;2024-02-15T15:21:11;18.50;58.40
8882;DHT22;4477;48.736;9.176;2024-02-15T15:23:39;18.10;59.00
8882;DHT22;4477;48.736;9.176;2024-02-15T15:26:07;17.80;59.50
8882;DHT22;4477;48.736;9.176;2024-02-15T15:28:36;17.50;60.50
8882;DHT22;4477;48.736;9.176;2024-02-15T15:31:05;17.20;61.20
8882;DHT22;4477;48.736;9.176;2024-02-15T15:33:32;17.00;62.20
8882;DHT22;4477;48.736;9.176;2024-02-15T15:36:00;16.80;63.70
8882;DHT22;4477;48.736;9.176;2024-02-15T15:38:28;16.50;63.50
8882;DHT22;4477;48.736;9.176;2024-02-15T15:40:56;16.20;63.50
8882;DHT22;4477;48.736;9.176;2024-02-15T15:43:23;15.80;65.10
8882;DHT22;4477;48.736;9.176;2024-02-15T15:45:50;15.70;66.40
8882;DHT22;4477;48.736;9.176;2024-02-15T15:48:19;15.50;67.30
8882;DHT22;4477;48.736;9.176;2024-02-15T15:50:47;15.20;68.10
8882;DHT22;4477;48.736;9.176;2024-02-15T15:53:14;15.00;69.00
8882;DHT22;4477;48.736;9.176;2024-02-15T15:55:41;14.80;70.10
8882;DHT22;4477;48.736;9.176;2024-02-15T15:58:08;14.60;71.00
8882;DHT22;4477;48.736;9.176;2024-02-15T16:00:36;14.50;71.60
8882;DHT22;4477;48.736;9.176;2024-02-15T16:03:04;14.30;72.30
8882;DHT22;4477;48.736;9.176;2024-02-15T16:05:33;14.10;72.80
8882;DHT22;4477;48.736;9.176;2024-02-15T16:08:00;14.00;73.50
8882;DHT22;4477;48.736;9.176;2024-02-15T16:10:28;13.90;73.80
8882;DHT22;4477;48.736;9.176;2024-02-15T16:12:56;13.60;74.10
8882;DHT22;4477;48.736;9.176;2024-02-15T16:15:25;13.50;75.00
8882;DHT22;4477;48.736;9.176;2024-02-15T16:17:52;13.30;75.80
8882;DHT22;4477;48.736;9.176;2024-02-15T16:20:20;13.10;76.20
8882;DHT22;4477;48.736;9.176;2024-02-15T16:22:49;13.00;76.90
8882;DHT22;4477;48.736;9.176;2024-02-15T16:25:16;12.90;77.20
8882;DHT22;4477;48.736;9.176;2024-02-15T16:27:45;12.70;77.70
8882;DHT22;4477;48.736;9.176;2024-02-15T16:30:13;12.50;78.70
8882;DHT22;4477;48.736;9.176;2024-02-15T16:32:40;12.20;79.80
8882;DHT22;4477;48.736;9.176;2024-02-15T16:35:08;12.10;81.30
8882;DHT22;4477;48.736;9.176;2024-02-15T16:37:38;11.90;81.90
8882;DHT22;4477;48.736;9.176;2024-02-15T16:40:09;11.80;83.80
8882;DHT22;4477;48.736;9.176;2024-02-15T16:42:38;11.60;83.90
8882;DHT22;4477;48.736;9.176;2024-02-15T16:45:08;11.40;85.00
8882;DHT22;4477;48.736;9.176;2024-02-15T16:47:36;11.30;86.30
8882;DHT22;4477;48.736;9.176;2024-02-15T16:50:06;11.20;87.70
8882;DHT22;4477;48.736;9.176;2024-02-15T16:52:34;11.10;87.20
8882;DHT22;4477;48.736;9.176;2024-02-15T16:55:03;10.90;88.20
8882;DHT22;4477;48.736;9.176;2024-02-15T16:57:34;10.80;89.20
8882;DHT22;4477;48.736;9.176;2024-02-15T17:00:02;10.70;90.10
8882;DHT22;4477;48.736;9.176;2024-02-15T17:02:31;10.60;90.70
8882;DHT22;4477;48.736;9.176;2024-02-15T17:05:03;10.50;91.00
8882;DHT22;4477;48.736;9.176;2024-02-15T17:07:45;10.60;91.30
8882;DHT22;4477;48.736;9.176;2024-02-15T17:10:15;10.50;91.90
8882;DHT22;4477;48.736;9.176;2024-02-15T17:12:45;10.50;92.20
8882;DHT22;4477;48.736;9.176;2024-02-15T17:15:13;10.60;92.30
8882;DHT22;4477;48.736;9.176;2024-02-15T17:17:40;10.70;92.30
8882;DHT22;4477;48.736;9.176;2024-02-15T17:20:12;10.70;92.20
8882;DHT22;4477;48.736;9.176;2024-02-15T17:22:45;10.90;92.00
8882;DHT22;4477;48.736;9.176;2024-02-15T17:25:13;11.00;91.80
8882;DHT22;4477;48.736;9.176;2024-02-15T17:27:41;10.90;91.80
8882;DHT22;4477;48.736;9.176;2024-02-15T17:30:11;10.90;92.00
8882;DHT22;4477;48.736;9.176;2024-02-15T17:32:39;11.00;92.20
8882;DHT22;4477;48.736;9.176;2024-02-15T17:35:08;11.10;92.10
8882;DHT22;4477;48.736;9.176;2024-02-15T17:37:39;11.20;91.80
8882;DHT22;4477;48.736;9.176;2024-02-15T17:40:15;11.30;91.50
8882;DHT22;4477;48.736;9.176;2024-02-15T17:42:46;11.50;91.40
8882;DHT22;4477;48.736;9.176;2024-02-15T17:45:15;11.50;91.10
8882;DHT22;4477;48.736;9.176;2024-02-15T17:47:44;11.40;91.00
8882;DHT22;4477;48.736;9.176;2024-02-15T17:50:12;11.50;91.00
8882;DHT22;4477;48.736;9.176;2024-02-15T17:52:42;11.40;90.80
8882;DHT22;4477;48.736;9.176;2024-02-15T17:55:11;11.40;90.40
8882;DHT22;4477;48.736;9.176;2024-02-15T17:57:40;11.40;90.00
8882;DHT22;4477;48.736;9.176;2024-02-15T18:00:09;11.40;89.70
8882;DHT22;4477;48.736;9.176;2024-02-15T18:02:42;11.40;89.70
8882;DHT22;4477;48.736;9.176;2024-02-15T18:05:13;11.30;89.10
8882;DHT22;4477;48.736;9.176;2024-02-15T18:07:40;11.30;88.90
8882;DHT22;4477;48.736;9.176;2024-02-15T18:10:08;11.20;89.40
8882;DHT22;4477;48.736;9.176;2024-02-15T18:12:37;11.10;89.90
8882;DHT22;4477;48.736;9.176;2024-02-15T18:15:06;11.00;90.10
8882;DHT22;4477;48.736;9.176;2024-02-15T18:17:39;11.00;90.40
8882;DHT22;4477;48.736;9.176;2024-02-15T18:20:21;10.90;90.50
8882;DHT22;4477;48.736;9.176;2024-02-15T18:22:48;10.80;90.70
8882;DHT22;4477;48.736;9.176;2024-02-15T18:25:16;10.70;90.80
8882;DHT22;4477;48.736;9.176;2024-02-15T18:27:44;10.70;90.70
8882;DHT22;4477;48.736;9.176;2024-02-15T18:30:12;10.60;90.80
8882;DHT22;4477;48.736;9.176;2024-02-15T18:32:44;10.60;91.00
8882;DHT22;4477;48.736;9.176;2024-02-15T18:35:13;10.60;91.10